createdAt,value
2022-12-26T00:02:10.870Z,4.60
2022-12-26T00:04:52.096Z,4.80
2022-12-26T00:07:20.043Z,4.70
2022-12-26T00:09:46.873Z,4.88
2022-12-26T00:12:14.329Z,4.93
2022-12-26T00:14:41.284Z,5.15
2022-12-26T00:17:08.052Z,5.18
2022-12-26T00:19:35.211Z,4.88
2022-12-26T00:22:01.944Z,4.90
2022-12-26T00:24:28.857Z,5.20
2022-12-26T00:26:55.616Z,4.93
2022-12-26T00:29:22.965Z,5.03
2022-12-26T00:31:49.827Z,5.38
2022-12-26T00:34:16.809Z,5.65
2022-12-26T00:36:43.689Z,5.10
2022-12-26T00:39:10.929Z,5.18
2022-12-26T00:41:37.735Z,4.28
2022-12-26T00:44:04.653Z,5.20
2022-12-26T00:46:31.517Z,4.97
2022-12-26T00:48:58.320Z,4.60
2022-12-26T00:51:25.128Z,4.78
2022-12-26T00:53:52.045Z,5.50
2022-12-26T00:56:18.856Z,5.40
2022-12-26T00:58:45.570Z,5.22
2022-12-26T01:01:22.397Z,4.95
2022-12-26T01:03:50.266Z,4.60
2022-12-26T01:06:18.099Z,5.05
2022-12-26T01:08:45.135Z,4.80
2022-12-26T01:11:14.026Z,5.10
2022-12-26T01:13:41.334Z,4.93
2022-12-26T01:16:08.581Z,4.82
2022-12-26T01:18:35.867Z,5.22
2022-12-26T01:21:06.332Z,4.70
2022-12-26T01:23:33.061Z,4.72
2022-12-26T01:26:18.773Z,5.60
2022-12-26T01:28:50.451Z,4.63
2022-12-26T01:31:18.678Z,4.80
2022-12-26T01:33:45.908Z,4.85
2022-12-26T01:36:13.606Z,5.15
2022-12-26T01:38:40.389Z,4.72
2022-12-26T01:41:16.717Z,4.88
2022-12-26T01:44:05.157Z,4.32
2022-12-26T01:46:43.846Z,4.38
2022-12-26T01:49:25.992Z,4.60
2022-12-26T01:52:03.745Z,4.63
2022-12-26T01:54:39.367Z,4.32
2022-12-26T01:57:16.452Z,4.28
2022-12-26T01:59:46.200Z,3.97
2022-12-26T02:02:13.587Z,4.40
2022-12-26T02:05:04.481Z,4.38
2022-12-26T02:07:34.569Z,4.20
2022-12-26T02:10:02.324Z,4.82
2022-12-26T02:12:39.027Z,4.60
2022-12-26T02:15:14.045Z,4.40
2022-12-26T02:17:41.551Z,4.55
2022-12-26T02:20:20.080Z,4.32
2022-12-26T02:22:57.192Z,4.55
2022-12-26T02:25:38.910Z,4.57
2022-12-26T02:28:49.545Z,4.38
2022-12-26T02:31:30.300Z,4.05
2022-12-26T02:34:13.701Z,4.28
2022-12-26T02:37:04.101Z,4.20
2022-12-26T02:39:55.899Z,4.15
2022-12-26T02:42:36.541Z,3.78
2022-12-26T02:45:42.157Z,4.22
2022-12-26T02:48:51.294Z,4.20
2022-12-26T02:51:49.536Z,3.90
2022-12-26T02:54:42.349Z,3.70
2022-12-26T02:57:31.928Z,3.83
2022-12-26T03:00:23.289Z,4.03
2022-12-26T03:03:14.237Z,3.38
2022-12-26T03:06:15.323Z,3.90
2022-12-26T03:09:26.011Z,3.70
2022-12-26T03:12:17.396Z,4.10
2022-12-26T03:14:47.338Z,3.47
2022-12-26T03:17:26.551Z,3.67
2022-12-26T03:20:21.892Z,4.00
2022-12-26T03:22:55.088Z,3.75
2022-12-26T03:26:08.690Z,3.30
2022-12-26T03:28:35.720Z,3.33
2022-12-26T03:31:07.781Z,3.55
2022-12-26T03:33:58.055Z,4.13
2022-12-26T03:36:43.034Z,4.20
2022-12-26T03:39:53.445Z,3.70
2022-12-26T03:42:52.488Z,4.28
2022-12-26T03:45:50.240Z,4.15
2022-12-26T03:48:49.720Z,4.18
2022-12-26T03:51:45.255Z,4.05
2022-12-26T03:54:38.001Z,3.88
2022-12-26T03:57:27.762Z,4.13
2022-12-26T04:00:20.649Z,4.40
2022-12-26T04:03:08.293Z,4.25
2022-12-26T04:05:58.788Z,3.95
2022-12-26T04:08:55.693Z,4.10
2022-12-26T04:11:41.717Z,4.53
2022-12-26T04:14:43.931Z,3.90
2022-12-26T04:17:33.780Z,4.45
2022-12-26T04:20:07.480Z,3.95
2022-12-26T04:23:10.457Z,4.32
2022-12-26T04:26:16.041Z,4.20
2022-12-26T04:29:01.459Z,3.90
2022-12-26T04:31:56.585Z,3.95
2022-12-26T04:35:16.682Z,4.10
2022-12-26T04:38:04.425Z,3.65
2022-12-26T04:40:54.748Z,3.67
2022-12-26T04:43:47.185Z,3.75
2022-12-26T04:46:19.125Z,4.07
2022-12-26T04:49:06.736Z,3.63
2022-12-26T04:51:33.778Z,4.25
2022-12-26T04:54:00.560Z,4.22
2022-12-26T04:56:27.337Z,4.13
2022-12-26T04:58:54.053Z,3.70
2022-12-26T05:01:40.187Z,4.25
2022-12-26T05:04:27.497Z,3.92
2022-12-26T05:07:12.666Z,3.58
2022-12-26T05:09:39.724Z,3.97
2022-12-26T05:12:08.617Z,3.75
2022-12-26T05:14:36.566Z,4.00
2022-12-26T05:17:25.830Z,4.15
2022-12-26T05:20:11.695Z,4.03
2022-12-26T05:22:59.273Z,4.00
2022-12-26T05:25:50.763Z,3.70
2022-12-26T05:28:36.648Z,3.92
2022-12-26T05:31:04.481Z,3.67
2022-12-26T05:33:50.112Z,3.50
2022-12-26T05:36:19.231Z,3.60
2022-12-26T05:38:46.183Z,3.80
2022-12-26T05:41:12.941Z,3.80
2022-12-26T05:43:39.708Z,3.78
2022-12-26T05:46:06.566Z,3.92
2022-12-26T05:48:33.424Z,3.60
2022-12-26T05:51:01.452Z,3.42
2022-12-26T05:53:29.511Z,3.47
2022-12-26T05:56:01.523Z,3.33
2022-12-26T05:58:28.362Z,3.53
2022-12-26T06:01:08.459Z,3.88
2022-12-26T06:03:36.329Z,3.50
2022-12-26T06:06:04.459Z,3.67
2022-12-26T06:08:31.626Z,3.88
2022-12-26T06:10:58.650Z,4.22
2022-12-26T06:13:25.464Z,3.63
2022-12-26T06:15:52.252Z,3.78
2022-12-26T06:18:19.208Z,3.67
2022-12-26T06:20:45.957Z,3.63
2022-12-26T06:23:12.757Z,3.58
2022-12-26T06:25:39.536Z,3.80
2022-12-26T06:28:06.309Z,3.55
2022-12-26T06:30:33.077Z,3.58
2022-12-26T06:32:59.869Z,3.30
2022-12-26T06:35:26.583Z,3.15
2022-12-26T06:37:53.363Z,3.30
2022-12-26T06:40:20.096Z,3.08
2022-12-26T06:42:46.855Z,3.15
2022-12-26T06:45:13.591Z,3.53
2022-12-26T06:47:40.526Z,3.10
2022-12-26T06:50:07.495Z,2.97
2022-12-26T06:52:34.251Z,3.08
2022-12-26T06:55:01.451Z,3.22
2022-12-26T06:57:28.779Z,3.55
2022-12-26T06:59:55.618Z,3.42
2022-12-26T07:02:23.375Z,3.40
2022-12-26T07:04:50.257Z,3.90
2022-12-26T07:07:16.970Z,3.80
2022-12-26T07:09:43.772Z,3.47
2022-12-26T07:12:10.476Z,3.47
2022-12-26T07:14:37.399Z,3.10
2022-12-26T07:17:04.121Z,3.50
2022-12-26T07:19:31.047Z,3.95
2022-12-26T07:21:57.811Z,3.17
2022-12-26T07:24:24.527Z,3.50
2022-12-26T07:26:51.286Z,3.90
2022-12-26T07:29:18.123Z,3.80
2022-12-26T07:31:45.043Z,3.55
2022-12-26T07:34:12.039Z,3.55
2022-12-26T07:36:39.737Z,3.50
2022-12-26T07:39:06.542Z,3.50
2022-12-26T07:41:51.824Z,3.00
2022-12-26T07:44:18.865Z,3.15
2022-12-26T07:46:46.704Z,3.50
2022-12-26T07:49:13.872Z,3.25
2022-12-26T07:51:41.989Z,3.53
2022-12-26T07:54:11.695Z,3.50
2022-12-26T07:56:39.730Z,3.60
2022-12-26T07:59:06.478Z,3.65
2022-12-26T08:01:33.387Z,3.30
2022-12-26T08:04:00.406Z,3.72
2022-12-26T08:06:27.812Z,3.33
2022-12-26T08:08:54.630Z,3.63
2022-12-26T08:11:23.666Z,3.65
2022-12-26T08:13:51.493Z,4.20
2022-12-26T08:16:19.015Z,3.35
2022-12-26T08:18:45.932Z,3.72
2022-12-26T08:21:13.431Z,3.22
2022-12-26T08:23:40.489Z,3.25
2022-12-26T08:26:12.365Z,4.40
2022-12-26T08:28:39.669Z,4.60
2022-12-26T08:31:08.106Z,3.78
2022-12-26T08:33:35.761Z,3.28
2022-12-26T08:36:06.670Z,3.70
2022-12-26T08:38:34.008Z,3.55
2022-12-26T08:41:01.196Z,3.38
2022-12-26T08:44:03.555Z,3.42
2022-12-26T08:46:15.730Z,2.88
2022-12-26T08:48:42.791Z,3.25
2022-12-26T08:51:17.667Z,3.20
2022-12-26T08:53:46.544Z,3.00
2022-12-26T08:56:16.443Z,2.90
2022-12-26T08:58:43.651Z,2.70
2022-12-26T09:01:22.025Z,2.60
2022-12-26T09:03:52.004Z,2.55
2022-12-26T09:06:18.757Z,3.08
2022-12-26T09:08:45.479Z,2.50
2022-12-26T09:11:19.092Z,2.85
2022-12-26T09:13:46.704Z,2.58
2022-12-26T09:16:14.906Z,2.50
2022-12-26T09:18:42.956Z,2.65
2022-12-26T09:21:11.452Z,2.58
2022-12-26T09:23:39.351Z,2.35
2022-12-26T09:26:08.627Z,2.40
2022-12-26T09:28:35.984Z,2.20
2022-12-26T09:31:05.083Z,2.45
2022-12-26T09:33:38.954Z,2.60
2022-12-26T09:36:14.873Z,2.53
2022-12-26T09:38:43.792Z,2.47
2022-12-26T09:41:19.580Z,2.38
2022-12-26T09:43:51.050Z,2.47
2022-12-26T09:46:48.246Z,2.42
2022-12-26T09:49:32.544Z,2.55
2022-12-26T09:52:03.124Z,2.58
2022-12-26T09:54:50.109Z,2.50
2022-12-26T09:57:21.512Z,2.85
2022-12-26T10:00:01.721Z,3.40
2022-12-26T10:02:28.954Z,2.83
2022-12-26T10:04:56.143Z,2.80
2022-12-26T10:07:46.145Z,3.13
2022-12-26T10:10:21.970Z,3.50
2022-12-26T10:13:34.485Z,3.10
2022-12-26T10:16:25.732Z,2.95
2022-12-26T10:19:03.107Z,3.20
2022-12-26T10:21:54.642Z,3.42
2022-12-26T10:24:25.173Z,3.72
2022-12-26T10:26:59.915Z,4.25
2022-12-26T10:29:41.248Z,3.70
2022-12-26T10:32:14.311Z,3.40
2022-12-26T10:34:47.094Z,3.60
2022-12-26T10:37:31.496Z,3.95
2022-12-26T10:40:25.043Z,4.30
2022-12-26T10:42:59.392Z,3.83
2022-12-26T10:45:39.291Z,3.85
2022-12-26T10:48:06.464Z,3.83
2022-12-26T10:50:34.924Z,4.15
2022-12-26T10:53:06.798Z,3.85
2022-12-26T10:55:35.334Z,5.05
2022-12-26T10:58:23.839Z,4.30
2022-12-26T11:00:50.836Z,4.38
2022-12-26T11:03:20.181Z,4.65
2022-12-26T11:06:07.104Z,4.45
2022-12-26T11:08:46.647Z,4.72
2022-12-26T11:11:20.542Z,4.57
2022-12-26T11:14:01.638Z,4.50
2022-12-26T11:16:35.539Z,4.38
2022-12-26T11:19:02.611Z,4.88
2022-12-26T11:21:32.205Z,4.60
2022-12-26T11:24:22.331Z,4.57
2022-12-26T11:26:49.203Z,4.60
2022-12-26T11:29:18.755Z,4.72
2022-12-26T11:31:56.772Z,4.65
2022-12-26T11:34:45.780Z,4.68
2022-12-26T11:37:28.619Z,5.30
2022-12-26T11:39:56.826Z,5.43
2022-12-26T11:42:25.645Z,5.40
2022-12-26T11:44:55.145Z,5.88
2022-12-26T11:47:25.976Z,7.63
2022-12-26T11:50:06.458Z,5.32
2022-12-26T11:52:47.239Z,5.00
2022-12-26T11:55:35.492Z,6.35
2022-12-26T11:58:24.902Z,6.40
2022-12-26T12:00:51.786Z,6.20
2022-12-26T12:03:21.829Z,6.47
2022-12-26T12:06:23.063Z,7.55
2022-12-26T12:08:49.768Z,6.18
2022-12-26T12:11:48.601Z,5.63
2022-12-26T12:14:54.191Z,6.30
2022-12-26T12:17:29.252Z,5.72
2022-12-26T12:20:08.067Z,5.47
2022-12-26T12:22:46.140Z,5.55
2022-12-26T12:25:40.026Z,5.60
2022-12-26T12:28:15.760Z,5.57
2022-12-26T12:31:04.029Z,5.85
2022-12-26T12:33:42.526Z,5.20
2022-12-26T12:36:32.510Z,5.00
2022-12-26T12:39:32.087Z,5.43
2022-12-26T12:42:28.053Z,4.65
2022-12-26T12:45:28.500Z,4.00
2022-12-26T12:48:10.191Z,4.05
2022-12-26T12:51:01.500Z,3.58
2022-12-26T12:53:57.663Z,3.28
2022-12-26T12:56:39.993Z,2.90
2022-12-26T12:59:24.223Z,2.58
2022-12-26T13:01:57.529Z,2.80
2022-12-26T13:06:57.780Z,2.65
2022-12-26T13:09:34.434Z,2.88
2022-12-26T13:12:05.074Z,2.78
2022-12-26T13:14:38.374Z,2.80
2022-12-26T13:17:20.349Z,2.80
2022-12-26T13:20:09.185Z,3.08
2022-12-26T13:23:01.845Z,2.63
2022-12-26T13:25:34.045Z,3.58
2022-12-26T13:28:09.412Z,3.00
2022-12-26T13:30:37.797Z,2.85
2022-12-26T13:33:06.015Z,2.70
2022-12-26T13:36:00.246Z,2.85
2022-12-26T13:38:59.054Z,2.70
2022-12-26T13:41:45.613Z,2.58
2022-12-26T13:44:18.226Z,3.20
2022-12-26T13:46:47.808Z,2.80
2022-12-26T13:49:41.665Z,2.90
2022-12-26T13:52:11.129Z,3.30
2022-12-26T13:55:09.640Z,2.97
2022-12-26T13:57:42.679Z,2.97
2022-12-26T14:00:23.722Z,2.92
2022-12-26T14:03:19.136Z,2.60
2022-12-26T14:06:08.832Z,2.90
2022-12-26T14:08:41.519Z,3.00
2022-12-26T14:11:48.687Z,2.90
2022-12-26T14:14:41.450Z,3.13
2022-12-26T14:17:23.476Z,3.90
2022-12-26T14:20:37.171Z,3.55
2022-12-26T14:23:14.783Z,3.08
2022-12-26T14:26:11.254Z,2.63
2022-12-26T14:29:16.519Z,3.00
2022-12-26T14:32:01.270Z,2.95
2022-12-26T14:34:46.896Z,2.78
2022-12-26T14:37:22.615Z,2.83
2022-12-26T14:40:18.597Z,2.38
2022-12-26T14:43:12.694Z,2.58
2022-12-26T14:45:41.786Z,2.25
2022-12-26T14:48:17.872Z,2.30
2022-12-26T14:50:46.082Z,2.70
2022-12-26T14:53:24.983Z,2.63
2022-12-26T14:56:10.302Z,2.90
2022-12-26T14:59:14.487Z,2.70
2022-12-26T15:04:52.650Z,3.05
2022-12-26T15:07:55.050Z,3.65
2022-12-26T15:10:49.752Z,4.13
2022-12-26T15:13:32.215Z,4.18
2022-12-26T15:16:30.825Z,4.50
2022-12-26T15:19:10.770Z,3.90
2022-12-26T15:22:08.831Z,4.00
2022-12-26T15:25:18.834Z,4.20
2022-12-26T15:27:59.313Z,3.80
2022-12-26T15:30:58.276Z,4.45
2022-12-26T15:33:49.403Z,4.03
2022-12-26T15:36:33.934Z,4.03
2022-12-26T15:39:21.686Z,4.40
2022-12-26T15:41:55.752Z,3.78
2022-12-26T15:44:33.993Z,3.95
2022-12-26T15:47:30.663Z,3.97
2022-12-26T15:50:22.479Z,4.03
2022-12-26T15:53:11.028Z,4.50
2022-12-26T15:56:15.306Z,5.22
2022-12-26T16:01:44.925Z,4.78
2022-12-26T16:04:21.220Z,5.05
2022-12-26T16:07:02.651Z,5.38
2022-12-26T16:09:47.411Z,5.20
2022-12-26T16:12:22.436Z,5.40
2022-12-26T16:14:49.670Z,5.25
2022-12-26T16:17:20.372Z,5.40
2022-12-26T16:19:51.360Z,4.22
2022-12-26T16:22:46.429Z,4.55
2022-12-26T16:25:21.410Z,4.40
2022-12-26T16:27:50.758Z,5.45
2022-12-26T16:30:30.654Z,5.38
2022-12-26T16:33:00.134Z,5.32
2022-12-26T16:35:31.873Z,5.68
2022-12-26T16:38:00.300Z,5.22
2022-12-26T16:40:41.895Z,6.03
2022-12-26T16:43:17.682Z,5.25
2022-12-26T16:45:49.973Z,6.15
2022-12-26T16:48:20.170Z,5.93
2022-12-26T16:50:49.891Z,5.93
2022-12-26T16:53:19.474Z,7.28
2022-12-26T16:56:09.677Z,7.00
2022-12-26T16:58:38.065Z,7.85
2022-12-26T17:01:14.211Z,6.90
2022-12-26T17:03:57.188Z,6.90
2022-12-26T17:06:30.508Z,8.10
2022-12-26T17:09:04.879Z,7.85
2022-12-26T17:11:34.977Z,7.30
2022-12-26T17:14:04.315Z,7.68
2022-12-26T17:16:32.513Z,7.53
2022-12-26T17:19:20.264Z,8.00
2022-12-26T17:22:15.114Z,7.50
2022-12-26T17:24:42.808Z,7.22
2022-12-26T17:27:18.137Z,7.03
2022-12-26T17:29:48.039Z,7.03
2022-12-26T17:32:23.821Z,7.38
2022-12-26T17:34:50.693Z,6.90
2022-12-26T17:37:23.658Z,6.45
2022-12-26T17:40:02.759Z,6.72
2022-12-26T17:42:43.304Z,5.93
2022-12-26T17:45:16.554Z,6.78
2022-12-26T17:47:43.374Z,6.50
2022-12-26T17:50:10.200Z,6.63
2022-12-26T17:52:37.497Z,5.57
2022-12-26T17:55:11.598Z,6.13
2022-12-26T17:57:38.342Z,5.47
2022-12-26T18:00:17.037Z,5.57
2022-12-26T18:02:43.918Z,4.93
2022-12-26T18:05:10.722Z,5.50
2022-12-26T18:07:38.026Z,5.38
2022-12-26T18:10:05.909Z,4.90
2022-12-26T18:12:32.867Z,4.93
2022-12-26T18:15:02.347Z,5.20
2022-12-26T18:17:32.723Z,4.65
2022-12-26T18:20:00.374Z,4.47
2022-12-26T18:22:27.207Z,4.90
2022-12-26T18:24:54.136Z,5.32
2022-12-26T18:27:27.476Z,4.78
2022-12-26T18:29:54.226Z,4.78
2022-12-26T18:32:33.110Z,4.53
2022-12-26T18:35:00.613Z,4.63
2022-12-26T18:37:29.558Z,4.07
2022-12-26T18:39:56.625Z,4.40
2022-12-26T18:42:24.985Z,4.40
2022-12-26T18:44:51.846Z,4.60
2022-12-26T18:47:21.000Z,4.30
2022-12-26T18:49:48.337Z,5.35
2022-12-26T18:52:17.969Z,4.00
2022-12-26T18:54:45.023Z,3.80
2022-12-26T18:57:17.675Z,4.03
2022-12-26T18:59:45.178Z,3.58
2022-12-26T19:02:16.346Z,3.97
2022-12-26T19:04:43.163Z,3.92
2022-12-26T19:07:11.474Z,4.22
2022-12-26T19:09:41.775Z,3.97
2022-12-26T19:12:08.498Z,4.18
2022-12-26T19:14:35.258Z,4.00
2022-12-26T19:17:02.001Z,4.78
2022-12-26T19:19:29.710Z,4.53
2022-12-26T19:21:56.548Z,4.75
2022-12-26T19:24:23.533Z,4.88
2022-12-26T19:26:50.300Z,4.50
2022-12-26T19:29:17.052Z,4.53
2022-12-26T19:31:43.822Z,4.35
2022-12-26T19:34:10.601Z,4.20
2022-12-26T19:36:37.704Z,3.88
2022-12-26T19:39:04.813Z,4.13
2022-12-26T19:41:31.669Z,4.03
2022-12-26T19:43:59.511Z,3.70
2022-12-26T19:46:27.163Z,4.10
2022-12-26T19:48:54.635Z,3.58
2022-12-26T19:51:22.457Z,3.80
2022-12-26T19:53:49.416Z,3.78
2022-12-26T19:56:20.122Z,3.60
2022-12-26T19:58:51.847Z,3.65
2022-12-26T20:01:25.870Z,3.42
2022-12-26T20:03:57.874Z,3.50
2022-12-26T20:06:26.903Z,3.30
2022-12-26T20:08:59.519Z,3.47
2022-12-26T20:11:32.430Z,3.58
2022-12-26T20:14:00.990Z,3.45
2022-12-26T20:19:15.250Z,3.03
2022-12-26T20:21:41.990Z,3.50
2022-12-26T20:24:10.835Z,4.18
2022-12-26T20:26:37.640Z,3.13
2022-12-26T20:29:04.468Z,3.08
2022-12-26T20:31:32.973Z,3.08
2022-12-26T20:34:00.655Z,2.40
2022-12-26T20:36:29.995Z,2.30
2022-12-26T20:39:02.208Z,2.17
2022-12-26T20:41:29.642Z,1.95
2022-12-26T20:43:56.877Z,1.85
2022-12-26T20:46:26.663Z,2.10
2022-12-26T20:48:53.944Z,2.03
2022-12-26T20:51:37.006Z,2.03
2022-12-26T20:56:32.390Z,1.60
2022-12-26T20:58:59.626Z,1.63
2022-12-26T21:01:27.312Z,1.40
2022-12-26T21:03:55.327Z,1.33
2022-12-26T21:06:34.832Z,1.10
2022-12-26T21:09:02.170Z,0.90
2022-12-26T21:11:38.203Z,0.82
2022-12-26T21:14:08.452Z,0.80
2022-12-26T21:16:59.528Z,1.00
2022-12-26T21:19:29.386Z,0.80
2022-12-26T21:21:57.004Z,0.80
2022-12-26T21:24:27.920Z,1.00
2022-12-26T21:26:55.392Z,0.70
2022-12-26T21:29:26.807Z,0.68
2022-12-26T21:31:54.775Z,0.50
2022-12-26T21:34:23.882Z,0.57
2022-12-26T21:37:10.306Z,0.70
2022-12-26T21:39:37.824Z,0.52
2022-12-26T21:42:06.193Z,0.65
2022-12-26T21:44:33.159Z,0.60
2022-12-26T21:46:59.989Z,0.70
2022-12-26T21:49:26.880Z,0.88
2022-12-26T21:51:53.710Z,0.60
2022-12-26T21:54:43.452Z,0.63
2022-12-26T21:57:15.889Z,0.47
2022-12-26T21:59:58.431Z,0.65
2022-12-26T22:02:48.307Z,0.47
2022-12-26T22:05:16.418Z,0.68
2022-12-26T22:07:43.307Z,0.70
2022-12-26T22:10:33.585Z,0.85
2022-12-26T22:13:01.382Z,0.90
2022-12-26T22:15:46.771Z,0.80
2022-12-26T22:18:13.547Z,0.77
2022-12-26T22:20:41.414Z,0.60
2022-12-26T22:23:08.160Z,0.60
2022-12-26T22:25:34.903Z,0.70
2022-12-26T22:28:01.745Z,0.47
2022-12-26T22:30:28.581Z,0.45
2022-12-26T22:32:55.342Z,0.60
2022-12-26T22:35:22.479Z,0.52
2022-12-26T22:37:49.208Z,0.50
2022-12-26T22:40:16.007Z,0.50
2022-12-26T22:42:42.763Z,0.40
2022-12-26T22:45:09.747Z,0.43
2022-12-26T22:47:36.485Z,0.45
2022-12-26T22:50:03.341Z,0.35
2022-12-26T22:52:30.612Z,0.60
2022-12-26T22:54:57.349Z,0.70
2022-12-26T22:57:24.100Z,0.50
2022-12-26T23:00:08.416Z,0.43
2022-12-26T23:02:36.545Z,0.57
2022-12-26T23:05:04.914Z,0.70
2022-12-26T23:07:32.357Z,0.60
2022-12-26T23:10:00.325Z,0.60
2022-12-26T23:12:45.645Z,0.80
2022-12-26T23:15:20.924Z,0.60
2022-12-26T23:18:13.354Z,0.73
2022-12-26T23:20:59.324Z,0.60
2022-12-26T23:23:26.438Z,0.70
2022-12-26T23:25:53.151Z,0.73
2022-12-26T23:28:38.662Z,0.80
2022-12-26T23:31:05.506Z,0.70
2022-12-26T23:33:32.740Z,0.80
2022-12-26T23:35:59.466Z,0.80
2022-12-26T23:38:26.308Z,0.70
2022-12-26T23:40:53.120Z,0.75
2022-12-26T23:43:20.353Z,0.88
2022-12-26T23:45:47.075Z,0.90
2022-12-26T23:48:14.015Z,1.00
2022-12-26T23:50:40.905Z,0.98
2022-12-26T23:53:07.769Z,1.08
2022-12-26T23:55:34.623Z,0.95
2022-12-26T23:58:01.358Z,0.73
